Time;durP1;ratioP1;P1;durP2;ratioP2;P2;SDS_P1;SDS_P2;PMS_P1;PMS_P2;Temp;Humidity;BMP_temperature;BMP_pressure;BME280_temperature;BME280_humidity;BME280_pressure;Samples;Min_cycle;Max_cycle;Signal;HPM_P1;HPM_P2
2024/02/19 00:01:45;;;;;;;2.47;1.23;;;;;;;9.08;100.00;101035.25;5034538;28;20447;-70
2024/02/19 00:04:12;;;;;;;6.73;2.00;;;;;;;9.11;100.00;101037.38;5034610;28;20447;-71
2024/02/19 00:06:40;;;;;;;3.20;1.77;;;;;;;9.15;100.00;101037.63;5034071;28;20535;-71
2024/02/19 00:09:07;;;;;;;3.50;1.83;;;;;;;9.15;100.00;101035.72;5034243;28;21019;-71
2024/02/19 00:14:08;;;;;;;2.73;1.60;;;;;;;9.12;100.00;101027.38;5052317;28;20493;-71
2024/02/19 00:16:35;;;;;;;4.17;2.63;;;;;;;9.12;100.00;101025.50;5055165;28;21004;-72
2024/02/19 00:19:02;;;;;;;2.90;1.70;;;;;;;9.16;100.00;101020.31;5054014;28;20486;-72
2024/02/19 00:21:28;;;;;;;2.73;1.30;;;;;;;9.16;100.00;101021.13;5054909;28;20525;-72
2024/02/19 00:23:56;;;;;;;2.80;1.30;;;;;;;9.18;100.00;101018.97;5054232;28;20503;-72
2024/02/19 00:26:23;;;;;;;5.07;2.47;;;;;;;9.16;100.00;101015.72;5053495;28;20533;-72
2024/02/19 00:28:50;;;;;;;5.07;2.03;;;;;;;9.15;100.00;101011.41;5054118;28;20834;-72
2024/02/19 00:31:17;;;;;;;2.47;1.13;;;;;;;9.14;100.00;101009.78;5054429;28;20789;-72
2024/02/19 00:33:43;;;;;;;4.20;2.00;;;;;;;9.16;100.00;101012.22;5053671;28;20520;-72
2024/02/19 00:36:10;;;;;;;3.23;1.90;;;;;;;9.20;100.00;101013.25;5054040;28;20442;-72
2024/02/19 00:38:37;;;;;;;4.23;2.40;;;;;;;9.19;100.00;101001.66;5053870;28;20442;-72
2024/02/19 00:41:05;;;;;;;4.27;1.73;;;;;;;9.18;100.00;101001.94;5055211;28;20513;-72
2024/02/19 00:43:32;;;;;;;3.50;1.60;;;;;;;9.15;100.00;100997.91;5053552;28;20458;-72
2024/02/19 00:45:59;;;;;;;3.43;1.83;;;;;;;9.15;100.00;100995.19;5054301;28;20514;-71
2024/02/19 00:48:25;;;;;;;3.80;1.90;;;;;;;9.14;100.00;100988.19;5053571;28;20496;-71
2024/02/19 00:50:52;;;;;;;3.03;1.27;;;;;;;9.19;100.00;100982.72;5053408;28;20489;-72
2024/02/19 00:53:19;;;;;;;3.10;1.60;;;;;;;9.15;100.00;100983.56;5053725;28;20545;-72
2024/02/19 00:55:45;;;;;;;3.67;1.77;;;;;;;9.17;100.00;100976.81;5053916;28;20473;-72
2024/02/19 00:58:13;;;;;;;4.23;2.07;;;;;;;9.19;100.00;100974.63;5053293;28;20477;-72
2024/02/19 01:00:40;;;;;;;3.83;1.80;;;;;;;9.23;100.00;100975.69;5055694;28;20505;-73
2024/02/19 01:03:07;;;;;;;3.20;1.50;;;;;;;9.24;100.00;100963.75;5055299;28;20977;-72
2024/02/19 01:05:33;;;;;;;3.73;1.93;;;;;;;9.22;100.00;100963.25;5054721;28;20435;-72
2024/02/19 01:08:00;;;;;;;3.33;1.77;;;;;;;9.23;100.00;100959.47;5056135;28;20438;-72
2024/02/19 01:10:27;;;;;;;4.93;1.83;;;;;;;9.26;100.00;100958.91;5057458;28;20450;-72
2024/02/19 01:12:53;;;;;;;4.13;1.97;;;;;;;9.28;100.00;100954.00;5058155;28;20500;-72
2024/02/19 01:15:21;;;;;;;3.90;1.60;;;;;;;9.26;100.00;100953.50;5057816;28;20473;-72
2024/02/19 01:17:48;;;;;;;3.27;1.43;;;;;;;9.26;100.00;100948.09;5057286;28;20979;-72
2024/02/19 01:20:15;;;;;;;2.90;1.40;;;;;;;9.28;100.00;100945.91;5057526;28;20481;-72
2024/02/19 01:22:41;;;;;;;4.20;1.53;;;;;;;9.27;100.00;100949.69;5056961;28;20485;-72
2024/02/19 01:25:09;;;;;;;2.53;1.33;;;;;;;9.30;100.00;100943.72;5057162;28;20470;-72
2024/02/19 01:27:35;;;;;;;5.30;2.40;;;;;;;9.32;100.00;100946.16;5057036;28;20450;-72
2024/02/19 01:30:02;;;;;;;3.30;1.63;;;;;;;9.33;100.00;100936.94;5056654;28;20918;-72
2024/02/19 01:32:30;;;;;;;4.47;1.53;;;;;;;9.36;100.00;100930.97;5056566;28;20477;-72
2024/02/19 01:34:56;;;;;;;2.87;1.40;;;;;;;9.34;100.00;100925.84;5057429;28;20442;-72
2024/02/19 01:37:23;;;;;;;3.67;1.57;;;;;;;9.37;100.00;100926.38;5057188;28;20532;-72
2024/02/19 01:39:50;;;;;;;4.70;1.60;;;;;;;9.34;100.00;100925.84;5057044;28;20583;-72
2024/02/19 01:42:16;;;;;;;2.53;1.23;;;;;;;9.35;100.00;100916.66;5057155;28;20458;-72
2024/02/19 01:44:43;;;;;;;3.80;1.90;;;;;;;9.32;100.00;100919.09;5056725;28;20434;-72
2024/02/19 01:47:11;;;;;;;3.13;1.20;;;;;;;9.35;100.00;100919.34;5056716;28;20931;-72
2024/02/19 01:49:39;;;;;;;3.30;1.60;;;;;;;9.34;100.00;100916.91;5056628;28;20478;-72
2024/02/19 01:52:07;;;;;;;3.43;1.80;;;;;;;9.37;100.00;100920.97;5056511;28;20533;-72
2024/02/19 01:54:35;;;;;;;2.37;1.07;;;;;;;9.39;100.00;100910.69;5056520;28;20517;-72
2024/02/19 01:57:02;;;;;;;4.87;1.83;;;;;;;9.33;100.00;100904.50;5056467;28;20541;-72
2024/02/19 01:59:31;;;;;;;2.80;1.53;;;;;;;9.34;100.00;100903.41;5056905;28;21033;-72
2024/02/19 02:01:59;;;;;;;2.37;1.13;;;;;;;9.39;100.00;100907.97;5056336;28;20831;-72
2024/02/19 02:04:27;;;;;;;3.80;1.43;;;;;;;9.42;100.00;100904.69;5055701;28;20456;-71
2024/02/19 02:06:56;;;;;;;2.47;1.37;;;;;;;9.47;100.00;100908.13;5056588;28;20434;-72
2024/02/19 02:09:23;;;;;;;2.83;1.40;;;;;;;9.47;100.00;100894.63;5056345;28;20525;-71
2024/02/19 02:11:50;;;;;;;2.63;1.23;;;;;;;9.40;100.00;100891.47;5055950;28;20545;-71
2024/02/19 02:14:17;;;;;;;2.37;1.23;;;;;;;9.41;100.00;100895.78;5056161;28;20514;-72
2024/02/19 02:16:43;;;;;;;3.40;1.63;;;;;;;9.43;100.00;100887.38;5056518;28;20524;-72
2024/02/19 02:19:14;;;;;;;3.10;1.70;;;;;;;9.44;100.00;100889.81;5055381;28;20474;-72
2024/02/19 02:21:42;;;;;;;2.17;0.87;;;;;;;9.42;100.00;100883.06;5056094;28;20895;-72
2024/02/19 02:24:10;;;;;;;2.50;1.17;;;;;;;9.40;100.00;100894.16;5055966;28;20481;-72
2024/02/19 02:26:39;;;;;;;2.20;0.80;;;;;;;9.39;100.00;100886.34;5056309;28;20509;-72
2024/02/19 02:29:06;;;;;;;2.60;1.53;;;;;;;9.39;100.00;100886.34;5056222;28;20434;-72
2024/02/19 02:31:33;;;;;;;3.30;1.20;;;;;;;9.34;100.00;100879.91;5055782;28;20438;-72
2024/02/19 02:34:00;;;;;;;3.20;1.27;;;;;;;9.31;100.00;100885.06;5055766;28;20438;-72
2024/02/19 02:36:27;;;;;;;2.70;1.30;;;;;;;9.28;100.00;100872.91;5055427;28;20927;-72
2024/02/19 02:38:53;;;;;;;2.90;1.37;;;;;;;9.27;100.00;100876.72;5055744;28;20438;-72
2024/02/19 02:41:21;;;;;;;2.70;1.33;;;;;;;9.23;100.00;100872.97;5056374;28;20966;-72
2024/02/19 02:43:48;;;;;;;4.17;2.00;;;;;;;9.27;100.00;100879.41;5055581;28;20462;-72
2024/02/19 02:46:15;;;;;;;2.30;1.30;;;;;;;9.26;100.00;100875.09;5055524;28;20446;-72
2024/02/19 02:48:42;;;;;;;3.17;1.10;;;;;;;9.25;100.00;100876.22;5055234;28;21001;-71
2024/02/19 02:51:08;;;;;;;2.30;1.17;;;;;;;9.22;100.00;100874.06;5055243;28;20445;-71
2024/02/19 02:53:35;;;;;;;3.80;1.40;;;;;;;9.20;100.00;100876.22;5055447;28;20464;-71
2024/02/19 02:56:01;;;;;;;2.47;1.10;;;;;;;9.19;100.00;100866.53;5055438;28;20999;-71
2024/02/19 02:58:28;;;;;;;2.00;0.93;;;;;;;9.17;100.00;100865.22;5055372;28;20446;-71
2024/02/19 03:00:56;;;;;;;4.77;1.50;;;;;;;9.20;100.00;100861.91;5055543;28;20532;-72
2024/02/19 03:03:23;;;;;;;2.67;1.17;;;;;;;9.18;100.00;100866.81;5055242;28;20462;-72
2024/02/19 03:05:49;;;;;;;2.73;1.13;;;;;;;9.20;100.00;100854.59;5055247;28;20442;-72
2024/02/19 03:08:16;;;;;;;4.30;1.10;;;;;;;9.19;100.00;100858.41;5055520;28;20469;-72
2024/02/19 03:10:43;;;;;;;2.87;1.17;;;;;;;9.14;100.00;100850.34;5054858;28;20964;-72
2024/02/19 03:13:09;;;;;;;2.47;1.03;;;;;;;9.19;100.00;100850.31;5054720;28;20478;-72
2024/02/19 03:15:36;;;;;;;4.07;1.60;;;;;;;9.19;100.00;100855.72;5055024;28;20447;-72
2024/02/19 03:18:05;;;;;;;4.50;1.33;;;;;;;9.14;100.00;100853.06;5055319;28;20474;-72
2024/02/19 03:20:31;;;;;;;2.83;1.00;;;;;;;9.14;100.00;100847.66;5055430;28;20490;-72
2024/02/19 03:22:58;;;;;;;2.83;1.10;;;;;;;9.15;100.00;100845.75;5054697;28;20524;-72
2024/02/19 03:25:24;;;;;;;2.27;1.10;;;;;;;9.15;100.00;100846.56;5054835;28;20521;-72
2024/02/19 03:27:51;;;;;;;1.77;0.63;;;;;;;9.17;100.00;100851.69;5054536;28;20438;-72
2024/02/19 03:30:18;;;;;;;4.50;1.57;;;;;;;9.15;100.00;100845.75;5053689;28;20445;-73
2024/02/19 03:32:44;;;;;;;3.87;1.00;;;;;;;9.15;100.00;100848.44;5054649;28;20548;-73
2024/02/19 03:35:13;;;;;;;3.10;1.00;;;;;;;9.14;100.00;100846.84;5054330;28;20478;-73
2024/02/19 03:37:39;;;;;;;2.50;1.00;;;;;;;9.15;100.00;100849.25;5054651;28;20442;-73
2024/02/19 03:40:08;;;;;;;2.43;0.87;;;;;;;9.11;100.00;100850.91;5054173;28;20576;-73
2024/02/19 03:42:35;;;;;;;2.30;0.90;;;;;;;9.16;100.00;100847.34;5054392;28;21028;-73
2024/02/19 03:45:03;;;;;;;2.30;0.80;;;;;;;9.09;100.00;100855.81;5054407;28;20442;-74
2024/02/19 03:47:30;;;;;;;2.73;0.90;;;;;;;9.08;100.00;100859.59;5054141;28;20926;-73
2024/02/19 03:49:56;;;;;;;1.97;0.73;;;;;;;9.10;100.00;100862.81;5054371;28;20525;-73
2024/02/19 03:52:24;;;;;;;2.47;0.93;;;;;;;9.09;100.00;100867.41;5054162;28;20466;-73
2024/02/19 03:54:51;;;;;;;2.77;1.13;;;;;;;9.12;100.00;100867.94;5054290;28;20438;-73
2024/02/19 03:57:18;;;;;;;1.80;0.60;;;;;;;9.06;100.00;100873.38;5054053;28;20890;-73
2024/02/19 03:59:44;;;;;;;2.73;0.80;;;;;;;9.09;100.00;100872.81;5054366;28;20441;-73
2024/02/19 04:02:11;;;;;;;2.47;0.90;;;;;;;9.10;100.00;100869.03;5054377;28;20465;-73
2024/02/19 04:04:37;;;;;;;3.90;1.13;;;;;;;9.09;100.00;100877.44;5054714;28;20528;-73
2024/02/19 04:07:05;;;;;;;2.23;0.90;;;;;;;9.05;100.00;100881.78;5053984;28;20525;-73
2024/02/19 04:09:34;;;;;;;2.03;0.70;;;;;;;9.03;100.00;100889.34;5054011;28;20446;-73
2024/02/19 04:12:03;;;;;;;1.90;0.67;;;;;;;9.06;100.00;100884.19;5053742;28;20484;-73
2024/02/19 04:14:30;;;;;;;2.33;1.03;;;;;;;9.06;100.00;100891.50;5053610;28;20840;-72
2024/02/19 04:16:56;;;;;;;2.47;0.93;;;;;;;9.01;100.00;100892.34;5054203;28;20430;-73
2024/02/19 04:19:23;;;;;;;1.90;0.80;;;;;;;8.93;100.00;100890.25;5053869;28;20529;-74
2024/02/19 04:21:50;;;;;;;1.83;0.60;;;;;;;8.90;100.00;100901.63;5053679;28;20482;-73
2024/02/19 04:24:17;;;;;;;1.80;0.50;;;;;;;8.88;100.00;100903.00;5053694;28;20852;-73
2024/02/19 04:26:44;;;;;;;1.77;0.57;;;;;;;8.88;100.00;100905.69;5054217;28;20442;-73
2024/02/19 04:29:11;;;;;;;1.60;0.50;;;;;;;8.81;100.00;100912.22;5053415;28;21021;-72
2024/02/19 04:31:38;;;;;;;1.80;0.47;;;;;;;8.87;100.00;100925.69;5053576;28;20525;-73
2024/02/19 04:34:05;;;;;;;1.97;0.50;;;;;;;8.81;100.00;100911.44;5054041;28;20530;-73
2024/02/19 04:36:32;;;;;;;1.70;0.53;;;;;;;8.74;100.00;100914.44;5053575;28;20918;-73
2024/02/19 04:38:59;;;;;;;2.60;0.77;;;;;;;8.73;100.00;100928.22;5053585;28;20437;-73
2024/02/19 04:41:26;;;;;;;2.00;0.60;;;;;;;8.74;100.00;100925.22;5053089;28;20576;-73
2024/02/19 04:43:54;;;;;;;2.77;0.60;;;;;;;8.72;100.00;100937.38;5053457;28;20540;-73
2024/02/19 04:46:20;;;;;;;1.70;0.50;;;;;;;8.72;100.00;100949.03;5053554;28;20525;-74
2024/02/19 04:48:47;;;;;;;2.80;0.87;;;;;;;8.66;100.00;100944.72;5053140;28;20957;-74
2024/02/19 04:51:13;;;;;;;2.10;0.80;;;;;;;8.53;100.00;100943.44;5053478;28;20521;-75
2024/02/19 04:53:40;;;;;;;1.60;0.50;;;;;;;8.55;100.00;100945.88;5053359;28;20458;-74
2024/02/19 04:56:07;;;;;;;3.10;1.23;;;;;;;8.53;100.00;100943.44;5053988;28;20446;-75
2024/02/19 04:58:34;;;;;;;2.33;1.03;;;;;;;8.51;100.00;100958.31;5053399;28;20957;-75
2024/02/19 05:01:03;;;;;;;1.80;0.80;;;;;;;8.51;100.00;100961.00;5053186;28;21049;-75
2024/02/19 05:03:30;;;;;;;2.47;0.90;;;;;;;8.50;100.00;100962.06;5053195;28;20462;-75
2024/02/19 05:05:56;;;;;;;2.57;1.20;;;;;;;8.55;100.00;100972.88;5053666;28;20821;-74
2024/02/19 05:08:23;;;;;;;2.80;1.17;;;;;;;8.47;100.00;100973.44;5052970;28;20439;-75
2024/02/19 05:10:50;;;;;;;2.23;0.87;;;;;;;8.46;100.00;100969.16;5053928;28;20517;-75
2024/02/19 05:13:17;;;;;;;1.90;0.80;;;;;;;8.41;100.00;100979.94;5052812;28;20473;-75
2024/02/19 05:15:44;;;;;;;2.43;1.10;;;;;;;8.41;100.00;100977.25;5052937;28;20481;-75
2024/02/19 05:18:12;;;;;;;1.60;0.47;;;;;;;8.41;100.00;100982.63;5053206;28;20446;-75
2024/02/19 05:20:39;;;;;;;2.07;0.87;;;;;;;8.30;100.00;100990.75;5053112;28;20573;-74
2024/02/19 05:23:05;;;;;;;2.23;0.80;;;;;;;8.28;100.00;100982.13;5053665;28;20458;-75
2024/02/19 05:25:32;;;;;;;2.73;0.93;;;;;;;8.27;100.00;100985.91;5052969;28;21005;-74
2024/02/19 05:27:59;;;;;;;2.17;0.67;;;;;;;8.23;100.00;100984.84;5053463;28;20522;-75
2024/02/19 05:30:26;;;;;;;1.60;0.40;;;;;;;8.32;100.00;100996.69;5052835;28;20442;-75
2024/02/19 05:32:53;;;;;;;2.00;0.70;;;;;;;8.26;100.00;100994.28;5053245;28;20458;-75
2024/02/19 05:35:21;;;;;;;2.57;0.83;;;;;;;8.26;100.00;101000.47;5053051;28;20861;-75
2024/02/19 05:37:47;;;;;;;1.97;0.57;;;;;;;8.22;100.00;101012.91;5052703;28;20521;-76
2024/02/19 05:40:14;;;;;;;2.03;0.70;;;;;;;8.25;100.00;101006.16;5052644;28;20529;-76
2024/02/19 05:42:41;;;;;;;2.10;0.73;;;;;;;8.18;100.00;101009.13;5052331;28;21015;-76
2024/02/19 05:45:08;;;;;;;1.80;0.73;;;;;;;8.14;100.00;101009.97;5053336;28;20525;-76
2024/02/19 05:47:35;;;;;;;1.80;0.70;;;;;;;8.15;100.00;101017.00;5052543;28;20492;-76
2024/02/19 05:50:02;;;;;;;1.60;0.40;;;;;;;8.04;100.00;101021.59;5052573;28;20482;-76
2024/02/19 05:52:31;;;;;;;2.10;0.67;;;;;;;7.88;100.00;101020.00;5052560;28;20458;-76
2024/02/19 05:54:58;;;;;;;1.73;0.47;;;;;;;7.84;100.00;101019.75;5055745;28;20445;-76
2024/02/19 05:57:25;;;;;;;2.27;0.60;;;;;;;7.82;100.00;101030.78;5056133;28;20804;-75
2024/02/19 05:59:52;;;;;;;1.80;0.53;;;;;;;7.81;100.00;101037.28;5055822;28;20446;-75
2024/02/19 06:02:19;;;;;;;1.60;0.40;;;;;;;7.77;100.00;101036.19;5055639;28;21354;-72
2024/02/19 06:04:45;;;;;;;1.83;0.50;;;;;;;7.72;100.00;101038.91;5056180;28;20577;-71
2024/02/19 06:07:12;;;;;;;1.70;0.60;;;;;;;7.71;100.00;101034.59;5056536;28;21013;-74
2024/02/19 06:09:41;;;;;;;2.17;0.80;;;;;;;7.66;100.00;101045.38;5056348;28;20537;-74
2024/02/19 06:12:08;;;;;;;3.23;0.77;;;;;;;7.71;100.00;101044.56;5055895;28;20473;-75
2024/02/19 06:14:36;;;;;;;5.10;1.13;;;;;;;7.71;100.00;101048.06;5056150;28;20513;-75
2024/02/19 06:17:03;;;;;;;1.60;0.40;;;;;;;7.70;100.00;101051.84;5056551;28;20443;-75
2024/02/19 06:19:29;;;;;;;1.60;0.40;;;;;;;7.68;100.00;101062.09;5056075;28;20930;-75
2024/02/19 06:21:56;;;;;;;1.60;0.50;;;;;;;7.63;100.00;101063.97;5055961;28;20580;-76
2024/02/19 06:24:22;;;;;;;1.73;0.53;;;;;;;7.57;100.00;101061.28;5056463;28;20899;-75
2024/02/19 06:26:50;;;;;;;1.70;0.50;;;;;;;7.60;100.00;101070.69;5055706;28;20918;-76
2024/02/19 06:29:17;;;;;;;1.70;0.50;;;;;;;7.60;100.00;101062.63;5055905;28;20801;-75
2024/02/19 06:31:46;;;;;;;1.67;0.43;;;;;;;7.56;100.00;101066.94;5055776;28;20961;-76
2024/02/19 06:34:12;;;;;;;1.60;0.40;;;;;;;7.56;100.00;101073.13;5055854;28;20523;-76
2024/02/19 06:36:40;;;;;;;1.67;0.43;;;;;;;7.54;100.00;101069.09;5055467;28;21022;-75
2024/02/19 06:39:07;;;;;;;1.57;0.37;;;;;;;7.57;100.00;101074.75;5055689;28;20449;-75
2024/02/19 06:41:33;;;;;;;1.80;0.67;;;;;;;7.54;100.00;101071.78;5056080;28;20482;-75
2024/02/19 06:44:01;;;;;;;1.70;0.60;;;;;;;7.51;100.00;101077.72;5056025;28;20470;-76
2024/02/19 06:46:28;;;;;;;1.50;0.30;;;;;;;7.48;100.00;101081.75;5055265;28;20469;-76
2024/02/19 06:48:56;;;;;;;1.60;0.50;;;;;;;7.49;100.00;101087.97;5055480;28;21033;-75
2024/02/19 06:51:22;;;;;;;1.60;0.40;;;;;;;7.50;100.00;101084.19;5055468;28;20447;-76
2024/02/19 06:53:49;;;;;;;1.67;0.53;;;;;;;7.50;100.00;101084.19;5055429;28;20569;-76
2024/02/19 06:56:15;;;;;;;1.60;0.40;;;;;;;7.50;100.00;101086.88;5055362;28;20435;-76
2024/02/19 06:58:42;;;;;;;1.57;0.40;;;;;;;7.53;100.00;101089.03;5055073;28;20474;-75
2024/02/19 07:01:13;;;;;;;1.80;0.73;;;;;;;7.53;100.00;101094.44;5055509;28;20565;-75
2024/02/19 07:03:40;;;;;;;2.30;0.77;;;;;;;7.54;100.00;101093.34;5054888;28;20484;-74
2024/02/19 07:06:07;;;;;;;2.73;0.50;;;;;;;7.51;100.00;101093.88;5053925;28;20795;-75
2024/02/19 07:08:33;;;;;;;1.60;0.40;;;;;;;7.54;100.00;101104.13;5054857;28;20892;-74
2024/02/19 07:11:00;;;;;;;1.60;0.40;;;;;;;7.60;100.00;101105.75;5055103;28;20437;-74
2024/02/19 07:13:27;;;;;;;1.97;0.70;;;;;;;7.63;100.00;101107.91;5054807;28;20506;-73
2024/02/19 07:15:53;;;;;;;1.60;0.40;;;;;;;7.56;100.00;101120.84;5055377;28;20526;-75
2024/02/19 07:18:21;;;;;;;1.70;0.53;;;;;;;7.56;100.00;101115.44;5054986;28;20438;-74
2024/02/19 07:20:48;;;;;;;1.67;0.47;;;;;;;7.55;100.00;101124.63;5055104;28;20529;-75
2024/02/19 07:23:14;;;;;;;2.00;0.60;;;;;;;7.57;100.00;101127.88;5054907;28;20549;-74
2024/02/19 07:25:41;;;;;;;1.50;0.40;;;;;;;7.51;100.00;101118.13;5054830;28;20532;-74
2024/02/19 07:28:08;;;;;;;1.50;0.30;;;;;;;7.46;100.00;101129.72;5055646;28;20541;-74
2024/02/19 07:30:35;;;;;;;2.17;0.50;;;;;;;7.51;100.00;101131.63;5054716;28;20529;-73
2024/02/19 07:33:02;;;;;;;1.50;0.37;;;;;;;7.51;100.00;101131.63;5054340;28;20475;-74
2024/02/19 07:35:30;;;;;;;1.50;0.40;;;;;;;7.49;100.00;101155.34;5054853;28;20541;-74
2024/02/19 07:37:57;;;;;;;3.93;0.83;;;;;;;7.45;100.00;101143.47;5054796;28;20445;-73
2024/02/19 07:40:24;;;;;;;1.60;0.40;;;;;;;7.48;100.00;101145.63;5054543;28;20448;-74
2024/02/19 07:42:51;;;;;;;1.60;0.50;;;;;;;7.44;100.00;101161.53;5054371;28;20585;-74
2024/02/19 07:45:17;;;;;;;2.00;0.53;;;;;;;7.44;100.00;101166.13;5054684;28;20517;-72
2024/02/19 07:47:44;;;;;;;1.60;0.40;;;;;;;7.47;100.00;101160.97;5054967;28;20442;-75
2024/02/19 07:50:11;;;;;;;2.00;0.60;;;;;;;7.47;100.00;101170.97;5054830;28;20519;-75
2024/02/19 07:52:43;;;;;;;2.13;0.60;;;;;;;7.49;100.00;101168.81;5054121;28;20465;-75
2024/02/19 07:55:10;;;;;;;1.83;0.57;;;;;;;7.38;100.00;101186.84;5054481;28;20509;-74
2024/02/19 07:57:36;;;;;;;1.60;0.40;;;;;;;7.44;100.00;101179.59;5054262;28;20442;-74
2024/02/19 08:00:05;;;;;;;1.60;0.40;;;;;;;7.44;100.00;101182.28;5054560;28;20521;-75
2024/02/19 08:02:31;;;;;;;2.00;0.40;;;;;;;7.45;100.00;101186.59;5054080;28;20478;-75
2024/02/19 08:04:58;;;;;;;1.57;0.43;;;;;;;7.39;100.00;101193.03;5054546;28;20541;-74
2024/02/19 08:07:24;;;;;;;1.67;0.47;;;;;;;7.47;100.00;101200.59;5054373;28;20516;-76
2024/02/19 08:09:52;;;;;;;2.43;0.40;;;;;;;7.40;100.00;101216.22;5054029;28;20993;-75
2024/02/19 08:12:19;;;;;;;1.60;0.40;;;;;;;7.42;100.00;101232.94;5054136;28;20468;-75
2024/02/19 08:14:46;;;;;;;1.50;0.30;;;;;;;7.37;100.00;101219.44;5054543;28;20458;-75
2024/02/19 08:17:12;;;;;;;1.60;0.40;;;;;;;7.37;100.00;101235.63;5054188;28;20443;-75
2024/02/19 08:19:39;;;;;;;1.50;0.40;;;;;;;7.31;100.00;101235.59;5054501;28;20521;-75
2024/02/19 08:22:06;;;;;;;1.70;0.57;;;;;;;7.40;100.00;101245.88;5054040;28;20524;-74
2024/02/19 08:24:33;;;;;;;1.50;0.30;;;;;;;7.39;100.00;101238.84;5054038;28;20529;-74
2024/02/19 08:27:01;;;;;;;1.50;0.30;;;;;;;7.42;100.00;101255.31;5053808;28;20770;-73
2024/02/19 08:29:28;;;;;;;1.70;0.50;;;;;;;7.36;100.00;101242.09;5053891;28;20530;-73
2024/02/19 08:31:55;;;;;;;1.50;0.37;;;;;;;7.39;100.00;101269.28;5053293;28;20465;-73
2024/02/19 08:34:23;;;;;;;1.70;0.50;;;;;;;7.41;100.00;101260.97;5053405;28;20962;-73
2024/02/19 08:36:50;;;;;;;1.60;0.40;;;;;;;7.44;100.00;101263.94;5053839;28;20512;-73
2024/02/19 08:39:16;;;;;;;1.80;0.40;;;;;;;7.44;100.00;101269.34;5053674;28;20470;-73
2024/02/19 08:41:43;;;;;;;1.60;0.40;;;;;;;7.30;100.00;101271.72;5053461;28;20514;-74
2024/02/19 08:44:11;;;;;;;1.60;0.50;;;;;;;7.34;100.00;101288.13;5053527;28;20532;-71
2024/02/19 08:46:38;;;;;;;1.90;0.60;;;;;;;7.34;100.00;101291.63;5053967;28;20525;-72
2024/02/19 08:49:04;;;;;;;1.60;0.40;;;;;;;7.32;100.00;101287.59;5053462;28;20521;-71
2024/02/19 08:51:31;;;;;;;1.57;0.40;;;;;;;7.25;100.00;101290.50;5053554;28;20520;-71
2024/02/19 08:53:57;;;;;;;2.03;0.40;;;;;;;7.27;100.00;101288.38;5053439;28;20537;-74
2024/02/19 08:56:24;;;;;;;1.67;0.50;;;;;;;7.25;100.00;101298.59;5053904;28;20442;-74
2024/02/19 08:58:51;;;;;;;1.60;0.40;;;;;;;7.26;100.00;101294.84;5053465;28;20517;-75
2024/02/19 09:01:20;;;;;;;1.90;0.50;;;;;;;7.31;100.00;101302.16;5053425;28;20469;-74
2024/02/19 09:03:47;;;;;;;1.53;0.37;;;;;;;7.32;100.00;101298.38;5053227;28;20502;-74
2024/02/19 09:06:14;;;;;;;1.50;0.30;;;;;;;7.29;100.00;101307.78;5054030;28;20438;-74
2024/02/19 09:08:40;;;;;;;1.50;0.40;;;;;;;7.31;100.00;101319.13;5053301;28;20522;-71
2024/02/19 09:11:07;;;;;;;2.07;0.60;;;;;;;7.36;100.00;101321.03;5053633;28;20438;-71
2024/02/19 09:13:35;;;;;;;1.50;0.30;;;;;;;7.39;100.00;101327.78;5053116;28;20507;-73
2024/02/19 09:16:02;;;;;;;1.93;0.83;;;;;;;7.33;100.00;101316.16;5053183;28;20438;-71
2024/02/19 09:18:30;;;;;;;2.20;0.70;;;;;;;7.27;100.00;101326.13;5053221;28;20442;-72
2024/02/19 09:20:57;;;;;;;2.30;0.60;;;;;;;7.18;100.00;101338.44;5052930;28;20532;-72
2024/02/19 09:23:23;;;;;;;1.80;0.50;;;;;;;7.11;100.00;101345.13;5053077;28;20977;-71
2024/02/19 09:25:50;;;;;;;1.70;0.40;;;;;;;7.10;100.00;101347.00;5052755;28;20934;-71
2024/02/19 09:28:16;;;;;;;2.37;0.93;;;;;;;7.02;100.00;101358.25;5053839;28;20537;-71
2024/02/19 09:30:43;;;;;;;1.93;0.60;;;;;;;7.04;100.00;101356.13;5057033;28;20525;-71
2024/02/19 09:33:10;;;;;;;1.83;0.60;;;;;;;6.97;100.00;101358.22;5056904;28;20458;-71
2024/02/19 09:35:38;;;;;;;1.50;0.30;;;;;;;6.97;100.00;101372.50;5057003;28;20469;-72
2024/02/19 09:38:05;;;;;;;1.80;0.50;;;;;;;7.00;100.00;101368.50;5056899;28;20513;-73
2024/02/19 09:40:33;;;;;;;2.10;0.60;;;;;;;6.91;100.00;101378.94;5056733;28;20930;-72
2024/02/19 09:43:00;;;;;;;4.70;1.10;;;;;;;6.80;100.00;101388.78;5056975;28;20596;-72
2024/02/19 09:45:27;;;;;;;2.30;1.03;;;;;;;6.72;100.00;101386.53;5056991;28;20900;-71
2024/02/19 09:47:59;;;;;;;1.93;0.70;;;;;;;6.77;100.00;101383.94;5057028;28;20516;-72
2024/02/19 09:50:28;;;;;;;4.17;1.17;;;;;;;6.73;100.00;101396.28;5057004;28;20422;-72
2024/02/19 09:53:07;;;;;;;1.70;0.60;;;;;;;6.70;100.00;101393.28;5056522;28;20545;-71
2024/02/19 09:55:34;;;;;;;3.50;1.00;;;;;;;6.71;100.00;101394.88;5056686;28;20430;-72
2024/02/19 09:58:01;;;;;;;1.73;0.60;;;;;;;6.73;100.00;101415.13;5056550;28;20526;-70
2024/02/19 10:00:29;;;;;;;1.60;0.50;;;;;;;6.78;100.00;101409.78;5056468;28;20434;-73
2024/02/19 10:02:56;;;;;;;1.60;0.40;;;;;;;6.78;100.00;101407.09;5056349;28;20568;-72
2024/02/19 10:05:22;;;;;;;1.70;0.53;;;;;;;6.75;100.00;101415.66;5056369;28;20444;-72
2024/02/19 10:07:53;;;;;;;1.70;0.50;;;;;;;6.74;100.00;101411.34;5056303;28;20516;-73
2024/02/19 10:10:21;;;;;;;1.77;0.63;;;;;;;6.73;100.00;101415.13;5056279;28;20477;-72
2024/02/19 10:12:48;;;;;;;2.40;1.00;;;;;;;6.79;100.00;101416.78;5055902;28;20470;-72
2024/02/19 10:15:14;;;;;;;2.00;0.70;;;;;;;6.81;100.00;101411.94;5056286;28;20434;-72
2024/02/19 10:17:41;;;;;;;1.90;0.50;;;;;;;6.82;100.00;101424.34;5056353;28;20525;-72
2024/02/19 10:20:09;;;;;;;1.90;0.70;;;;;;;6.88;100.00;101417.13;5056108;28;20537;-72
2024/02/19 10:22:36;;;;;;;1.57;0.47;;;;;;;6.89;100.00;101434.91;5056242;28;20497;-72
2024/02/19 10:25:07;;;;;;;1.70;0.40;;;;;;;6.86;100.00;101423.81;5056110;28;20950;-72
2024/02/19 10:27:35;;;;;;;2.23;0.77;;;;;;;6.78;100.00;101423.25;5055947;28;20505;-73
2024/02/19 10:30:02;;;;;;;1.53;0.33;;;;;;;6.88;100.00;101427.09;5055944;28;20528;-72
2024/02/19 10:32:29;;;;;;;1.57;0.40;;;;;;;6.83;100.00;101436.75;5055835;28;20466;-72
2024/02/19 10:34:55;;;;;;;1.50;0.30;;;;;;;6.89;100.00;101417.94;5056219;28;20466;-72
2024/02/19 10:37:22;;;;;;;1.80;0.60;;;;;;;6.96;100.00;101427.44;5055776;28;20444;-72
2024/02/19 10:39:49;;;;;;;1.50;0.33;;;;;;;7.01;100.00;101434.75;5055457;28;20449;-73
2024/02/19 10:42:17;;;;;;;6.63;0.90;;;;;;;7.04;100.00;101443.13;5055593;28;20485;-73
2024/02/19 10:44:45;;;;;;;1.60;0.40;;;;;;;7.12;100.00;101431.06;5055608;28;20492;-72
2024/02/19 10:47:12;;;;;;;1.60;0.40;;;;;;;7.11;100.00;101440.22;5055684;28;20513;-72
2024/02/19 10:49:48;;;;;;;1.80;0.50;;;;;;;7.12;100.00;101439.16;5055600;28;20453;-73
2024/02/19 10:52:15;;;;;;;1.77;0.57;;;;;;;7.14;100.00;101442.41;5055159;28;20966;-72
2024/02/19 10:54:42;;;;;;;1.60;0.40;;;;;;;7.24;100.00;101442.47;5055435;28;20438;-73
2024/02/19 10:57:09;;;;;;;1.93;0.50;;;;;;;7.27;100.00;101441.97;5055426;28;20426;-72
2024/02/19 10:59:35;;;;;;;1.60;0.43;;;;;;;7.21;100.00;101451.06;5055186;28;20950;-72
2024/02/19 11:02:09;;;;;;;1.50;0.30;;;;;;;7.20;100.00;101444.06;5055307;28;20464;-72
2024/02/19 11:04:36;;;;;;;1.60;0.40;;;;;;;7.27;100.00;101447.38;5055621;28;20976;-72
2024/02/19 11:07:04;;;;;;;1.50;0.30;;;;;;;7.26;100.00;101445.75;5054940;28;20450;-72
2024/02/19 11:09:32;;;;;;;1.70;0.40;;;;;;;7.29;100.00;101450.59;5055233;28;20446;-73
2024/02/19 11:12:00;;;;;;;1.50;0.30;;;;;;;7.34;100.00;101444.44;5055356;28;20450;-72
2024/02/19 11:14:30;;;;;;;1.90;0.60;;;;;;;7.36;100.00;101442.31;5055187;28;20505;-71
2024/02/19 11:16:58;;;;;;;1.70;0.40;;;;;;;7.32;100.00;101444.72;5054783;28;20492;-72
2024/02/19 11:19:27;;;;;;;1.60;0.40;;;;;;;7.39;100.00;101449.06;5054668;28;20434;-72
2024/02/19 11:22:03;;;;;;;1.60;0.40;;;;;;;7.47;100.00;101440.50;5054854;28;20453;-73
2024/02/19 11:24:31;;;;;;;1.70;0.50;;;;;;;7.45;100.00;101432.69;5054957;28;20462;-72
2024/02/19 11:26:58;;;;;;;1.70;0.53;;;;;;;7.44;100.00;101447.22;5054569;28;20492;-70